Time;durP1;ratioP1;P1;durP2;ratioP2;P2;SDS_P1;SDS_P2;PMS_P1;PMS_P2;Temp;Humidity;BMP_temperature;BMP_pressure;BME280_temperature;BME280_humidity;BME280_pressure;Samples;Min_cycle;Max_cycle;Signal;HPM_P1;HPM_P2
2022/07/04 05:13:57;;;;;;;17.52;3.40;;;;;;;27.94;43.95;99515.80;1776814;80;20842;-69
2022/07/04 05:16:23;;;;;;;82.82;56.50;;;;;;;28.42;42.84;99514.73;1785641;79;20985;-69
2022/07/04 05:18:50;;;;;;;16.05;12.50;;;;;;;28.82;42.12;99516.83;1789507;79;21512;-70
2022/07/04 05:21:16;;;;;;;17.55;7.33;;;;;;;29.26;41.50;99519.63;1791787;79;21119;-73
2022/07/04 05:23:43;;;;;;;6.42;2.98;;;;;;;29.68;40.65;99517.71;1784025;79;21421;-73
2022/07/04 05:26:10;;;;;;;6.58;3.83;;;;;;;30.04;39.57;99511.93;1784235;79;21489;-73
2022/07/04 05:28:36;;;;;;;5.33;2.50;;;;;;;30.31;39.07;99510.41;1782443;79;20993;-73
2022/07/04 05:31:05;;;;;;;4.80;3.02;;;;;;;30.59;38.40;99505.65;1784581;79;20966;-73
2022/07/04 05:33:33;;;;;;;11.40;2.83;;;;;;;30.91;37.85;99513.71;1740905;81;22346;-73
2022/07/04 05:35:59;;;;;;;9.20;2.90;;;;;;;31.22;37.41;99510.16;1737671;81;21045;-73
2022/07/04 05:38:26;;;;;;;4.53;2.45;;;;;;;31.45;37.10;99506.72;1714415;82;21113;-74
2022/07/04 05:40:53;;;;;;;4.35;2.72;;;;;;;31.64;36.91;99512.41;1746088;81;21077;-74
2022/07/04 05:43:21;;;;;;;9.20;3.17;;;;;;;31.87;36.69;99518.88;1740433;82;21145;-74
2022/07/04 05:45:48;;;;;;;9.65;3.05;;;;;;;32.06;36.02;99514.93;1737816;81;20963;-74
2022/07/04 05:48:15;;;;;;;8.00;2.85;;;;;;;32.26;35.42;99514.20;1736169;81;20973;-74
2022/07/04 05:50:41;;;;;;;11.60;4.78;;;;;;;32.29;35.47;99520.02;1747189;82;21029;-74
2022/07/04 05:53:08;;;;;;;8.03;5.20;;;;;;;32.34;35.48;99520.77;1740777;81;21017;-74
2022/07/04 05:55:34;;;;;;;10.23;3.50;;;;;;;32.36;34.89;99518.70;1732021;81;21208;-74
2022/07/04 05:58:01;;;;;;;9.48;3.55;;;;;;;32.40;34.98;99518.06;1761464;79;21085;-74
2022/07/04 06:00:28;;;;;;;7.42;3.00;;;;;;;32.48;34.98;99517.06;1785424;79;21069;-74
2022/07/04 06:02:55;;;;;;;3.33;2.90;;;;;;;32.46;34.83;99517.78;1778136;80;21074;-73
2022/07/04 06:05:22;;;;;;;7.35;3.15;;;;;;;32.38;34.94;99517.44;1791282;80;21754;-74
2022/07/04 06:07:49;;;;;;;7.00;3.58;;;;;;;32.24;35.24;99511.71;1785877;79;21612;-74
2022/07/04 06:10:17;;;;;;;4.45;2.90;;;;;;;32.04;35.54;99513.47;1784979;80;21096;-74
2022/07/04 06:12:44;;;;;;;10.72;3.30;;;;;;;31.81;36.14;99513.77;1769832;80;21052;-74
2022/07/04 06:15:10;;;;;;;6.30;3.10;;;;;;;31.66;36.45;99513.08;1762909;80;21086;-74
2022/07/04 06:17:38;;;;;;;5.50;3.85;;;;;;;31.42;36.67;99516.52;1770896;80;21025;-74
2022/07/04 06:20:09;;;;;;;10.15;3.72;;;;;;;31.21;37.09;99506.33;1783877;80;21245;-75
2022/07/04 06:22:43;;;;;;;3.22;2.55;;;;;;;30.99;37.57;99503.64;1779984;79;20974;-74
2022/07/04 06:25:14;;;;;;;6.47;2.65;;;;;;;30.80;37.67;99501.62;1773239;80;20954;-74
2022/07/04 06:27:42;;;;;;;5.15;2.80;;;;;;;30.36;38.47;99498.59;1781699;80;21042;-72
2022/07/04 06:30:10;;;;;;;8.38;3.25;;;;;;;29.94;39.08;99495.28;1786500;80;21036;-73
2022/07/04 06:32:50;;;;;;;3.65;2.90;;;;;;;29.69;39.78;99493.91;1776901;80;21235;-73
2022/07/04 06:38:10;;;;;;;;;;;;;;;29.80;39.98;99490.24;1771357;80;21029;-74
2022/07/04 06:40:37;;;;;;;3.67;2.90;;;;;;;29.74;39.84;99493.69;1779552;79;20163;-74
2022/07/04 06:43:04;;;;;;;6.22;2.95;;;;;;;29.62;39.97;99485.77;1786443;80;20997;-74
2022/07/04 06:45:31;;;;;;;3.42;2.90;;;;;;;29.58;40.20;99496.53;1773449;79;21068;-73
2022/07/04 06:48:01;;;;;;;3.75;2.90;;;;;;;29.49;40.53;99490.95;1704602;83;21039;-73
2022/07/04 06:50:32;;;;;;;3.12;2.65;;;;;;;29.47;40.73;99497.00;1705631;83;20980;-73
2022/07/04 06:52:56;;;;;;;4.00;3.25;;;;;;;29.45;41.31;99493.67;1712642;83;21000;-74
2022/07/04 06:55:35;;;;;;;3.35;2.80;;;;;;;29.26;41.65;99490.16;1712148;83;21072;-74
2022/07/04 06:58:03;;;;;;;9.08;3.05;;;;;;;29.11;42.13;99492.32;1707089;82;21408;-74
2022/07/04 07:00:30;;;;;;;5.97;2.92;;;;;;;28.84;42.72;99488.88;1713054;83;21058;-75
2022/07/04 07:06:37;;;;;;;6.72;3.00;;;;;;;28.29;43.99;99486.41;1714146;83;21065;-74
2022/07/04 07:09:04;;;;;;;6.03;3.35;;;;;;;28.06;45.01;99491.67;1715028;82;21045;-75
2022/07/04 07:11:32;;;;;;;9.73;3.10;;;;;;;27.91;45.57;99492.92;1703167;83;21165;-75
2022/07/04 07:13:59;;;;;;;8.73;3.10;;;;;;;27.84;45.60;99486.59;1698598;82;21583;-75
2022/07/04 07:16:26;;;;;;;3.15;2.85;;;;;;;27.79;45.91;99481.77;1709479;82;21143;-75
2022/07/04 07:18:53;;;;;;;5.85;3.00;;;;;;;27.73;45.78;99475.80;1739315;80;21048;-75
2022/07/04 07:21:20;;;;;;;5.25;2.95;;;;;;;27.65;46.08;99477.15;1777939;79;21021;-74
2022/07/04 07:23:46;;;;;;;5.53;2.80;;;;;;;27.62;45.95;99478.83;1782614;79;21108;-74
2022/07/04 07:26:13;;;;;;;4.42;2.65;;;;;;;27.59;45.96;99472.98;1786667;80;21540;-73
2022/07/04 07:28:40;;;;;;;5.25;2.72;;;;;;;27.56;46.24;99478.17;1781346;80;21026;-73
2022/07/04 07:31:07;;;;;;;3.65;2.65;;;;;;;27.57;46.00;99479.88;1786328;79;21037;-74
2022/07/04 07:33:35;;;;;;;4.33;2.42;;;;;;;27.56;44.22;99469.32;1781848;80;21068;-73
2022/07/04 07:36:02;;;;;;;3.12;2.00;;;;;;;27.55;43.53;99471.16;1786694;80;21084;-74
2022/07/04 07:38:29;;;;;;;2.83;2.52;;;;;;;27.52;43.18;99472.00;1761473;80;21112;-74
2022/07/04 07:40:56;;;;;;;2.42;2.33;;;;;;;27.43;43.58;99465.83;1775862;80;21094;-74
2022/07/04 07:43:23;;;;;;;6.80;2.35;;;;;;;27.42;43.98;99466.34;1785237;80;21073;-75
2022/07/04 07:45:50;;;;;;;2.50;2.10;;;;;;;27.44;44.39;99464.83;1787265;80;20998;-74
2022/07/04 07:48:17;;;;;;;7.62;2.83;;;;;;;27.51;44.38;99466.33;1781463;79;21064;-75
2022/07/04 07:50:43;;;;;;;12.58;2.85;;;;;;;27.58;44.06;99468.15;1778993;79;20950;-76
2022/07/04 07:53:10;;;;;;;2.77;2.45;;;;;;;27.68;43.47;99466.13;1776250;79;20966;-75
2022/07/04 07:55:37;;;;;;;3.40;2.45;;;;;;;27.80;43.26;99463.89;1784514;79;21057;-75
2022/07/04 07:58:06;;;;;;;2.42;2.02;;;;;;;27.89;42.95;99469.55;1778296;80;21013;-74
2022/07/04 08:00:32;;;;;;;3.83;2.37;;;;;;;27.95;42.52;99462.17;1780791;80;21135;-73
2022/07/04 08:05:46;;;;;;;2.58;2.35;;;;;;;27.97;42.74;99452.14;1788673;79;20946;-74
2022/07/04 08:08:13;;;;;;;3.90;2.62;;;;;;;28.03;42.39;99459.44;1788995;80;21033;-75
2022/07/04 08:10:39;;;;;;;2.80;2.20;;;;;;;28.08;43.03;99461.09;1778637;80;21041;-77
2022/07/04 08:13:07;;;;;;;2.52;2.30;;;;;;;28.18;42.21;99456.03;1787369;80;21973;-76
2022/07/04 08:15:34;;;;;;;3.42;2.33;;;;;;;28.28;42.31;99453.47;1787705;80;20950;-76
2022/07/04 08:18:00;;;;;;;2.30;2.10;;;;;;;28.41;41.97;99455.05;1787055;80;21080;-73
2022/07/04 08:20:27;;;;;;;3.17;2.08;;;;;;;28.51;41.48;99452.65;1785436;80;20986;-74
2022/07/04 08:22:55;;;;;;;4.53;2.50;;;;;;;28.57;42.10;99454.63;1789618;79;20961;-74
2022/07/04 08:25:21;;;;;;;4.00;2.65;;;;;;;28.55;42.44;99451.29;1787529;79;21750;-73
2022/07/04 08:27:48;;;;;;;2.65;2.45;;;;;;;28.55;42.96;99456.64;1788702;80;20954;-73
2022/07/04 08:30:14;;;;;;;2.77;2.20;;;;;;;28.63;41.36;99449.87;1788954;80;20978;-74
2022/07/04 08:32:41;;;;;;;2.35;1.90;;;;;;;28.73;40.38;99449.96;1757059;80;21024;-74
2022/07/04 08:35:09;;;;;;;3.50;2.10;;;;;;;28.78;39.37;99446.72;1761912;79;21027;-73
2022/07/04 08:37:36;;;;;;;1.90;1.70;;;;;;;28.79;39.64;99451.06;1783776;79;21195;-74
2022/07/04 08:40:07;;;;;;;5.15;2.30;;;;;;;28.86;39.73;99448.54;1783966;79;21010;-74
2022/07/04 08:42:36;;;;;;;2.95;2.22;;;;;;;28.89;39.29;99437.47;1753595;81;20966;-75
2022/07/04 08:45:06;;;;;;;4.03;2.47;;;;;;;28.88;38.37;99442.50;1716103;82;21105;-75
2022/07/04 08:47:35;;;;;;;2.77;1.92;;;;;;;28.87;38.18;99438.98;1745256;81;21112;-80
2022/07/04 08:50:12;;;;;;;3.83;2.27;;;;;;;28.85;37.88;99432.98;1728629;82;21213;-80
2022/07/04 08:52:42;;;;;;;4.83;1.90;;;;;;;28.82;38.17;99436.52;1703618;83;21613;-77
2022/07/04 09:00:42;;;;;;;4.83;2.65;;;;;;;28.71;39.50;99435.09;1728815;82;20999;-73
2022/07/04 09:03:10;;;;;;;3.70;2.35;;;;;;;28.76;40.24;99430.88;1730235;82;21014;-75
2022/07/04 09:05:39;;;;;;;2.83;2.35;;;;;;;28.82;41.36;99434.67;1736717;82;21056;-74
2022/07/04 09:08:06;;;;;;;3.08;2.42;;;;;;;28.82;41.21;99438.69;1696917;82;21528;-74
2022/07/04 09:10:33;;;;;;;2.95;2.08;;;;;;;28.90;41.57;99441.81;1732351;82;21035;-77
2022/07/04 09:13:02;;;;;;;2.50;2.12;;;;;;;28.95;41.33;99437.59;1720200;82;20997;-78
2022/07/04 09:15:29;;;;;;;2.60;2.40;;;;;;;29.02;40.68;99433.14;1731497;82;21128;-79
2022/07/04 09:17:56;;;;;;;7.28;2.52;;;;;;;29.17;40.02;99434.52;1732739;82;21061;-82
2022/07/04 09:20:23;;;;;;;3.22;2.30;;;;;;;29.30;40.39;99432.02;1727443;82;21076;-71
2022/07/04 09:22:52;;;;;;;3.95;2.25;;;;;;;29.47;41.04;99428.67;1728176;82;21095;-72
2022/07/04 09:25:19;;;;;;;2.50;2.27;;;;;;;29.65;40.46;99425.09;1731292;82;20995;-74
2022/07/04 09:27:51;;;;;;;2.65;2.45;;;;;;;29.77;39.91;99424.95;1732649;82;21867;-72
2022/07/04 09:30:20;;;;;;;10.68;2.80;;;;;;;29.87;39.59;99419.28;1736501;82;21035;-69
2022/07/04 09:32:59;;;;;;;6.55;2.87;;;;;;;29.88;39.59;99419.60;1712925;82;21622;-72
2022/07/04 09:35:24;;;;;;;2.98;2.47;;;;;;;29.83;40.28;99410.78;1689722;82;21059;-73
2022/07/04 09:37:59;;;;;;;4.95;2.83;;;;;;;29.87;39.89;99417.94;1719216;82;21021;-71
2022/07/04 09:41:24;;;;;;;3.50;2.83;;;;;;;29.91;39.87;99415.72;1751204;81;21516;-72
2022/07/04 09:43:11;;;;;;;8.70;2.62;;;;;;;30.01;39.38;99414.41;1719062;82;20953;-72
2022/07/04 09:45:43;;;;;;;5.40;2.83;;;;;;;30.13;38.40;99407.55;1746689;82;20966;-72
2022/07/04 09:48:10;;;;;;;2.95;2.22;;;;;;;30.24;38.44;99402.68;1710865;82;21044;-70
2022/07/04 09:50:42;;;;;;;8.20;4.58;;;;;;;30.41;38.82;99412.96;1710590;82;21423;-72
2022/07/04 09:53:08;;;;;;;9.83;2.85;;;;;;;30.55;38.56;99400.55;1724294;82;21467;-71
2022/07/04 09:55:37;;;;;;;11.45;3.50;;;;;;;30.65;38.30;99400.20;1725878;83;20996;-70
2022/07/04 09:58:09;;;;;;;10.88;2.47;;;;;;;30.79;38.23;99399.27;1714949;82;21021;-70
2022/07/04 10:00:42;;;;;;;20.20;4.30;;;;;;;30.90;37.46;99404.11;1725416;82;21501;-70
2022/07/04 10:03:22;;;;;;;4.28;2.20;;;;;;;30.89;36.96;99401.11;1725134;81;21528;-70
2022/07/04 10:06:07;;;;;;;2.85;2.20;;;;;;;30.81;37.35;99395.36;1761248;81;21116;-70
2022/07/04 10:08:34;;;;;;;5.40;2.85;;;;;;;30.87;37.75;99394.27;1749568;81;21002;-71
2022/07/04 10:11:03;;;;;;;3.25;2.95;;;;;;;30.90;37.59;99397.91;1749194;81;21181;-71
2022/07/04 10:13:30;;;;;;;3.27;2.45;;;;;;;30.93;37.42;99398.36;1733337;81;21550;-70
2022/07/04 10:15:57;;;;;;;5.97;2.20;;;;;;;31.00;37.25;99395.18;1660285;86;21049;-68
2022/07/04 10:18:24;;;;;;;3.85;3.22;;;;;;;30.97;37.28;99396.11;1689153;83;21278;-72
2022/07/04 10:20:53;;;;;;;5.50;2.62;;;;;;;30.88;37.60;99396.77;1707369;83;21077;-72
2022/07/04 10:23:31;;;;;;;4.80;2.90;;;;;;;30.85;37.78;99393.13;1706812;83;20974;-76
2022/07/04 10:25:56;;;;;;;10.53;3.15;;;;;;;30.80;37.94;99391.02;1705113;83;21085;-74
2022/07/04 10:28:23;;;;;;;4.87;4.30;;;;;;;30.80;38.13;99391.53;1703247;83;21080;-71
2022/07/04 10:30:52;;;;;;;4.92;2.80;;;;;;;30.93;38.28;99385.44;1704370;83;21877;-78
2022/07/04 10:33:28;;;;;;;6.35;2.67;;;;;;;31.07;38.08;99389.35;1695456;84;20966;-71
2022/07/04 10:35:57;;;;;;;3.98;2.37;;;;;;;31.15;38.26;99383.03;1714147;82;21513;-70
2022/07/04 10:38:29;;;;;;;5.85;2.50;;;;;;;31.23;37.98;99376.14;1721632;82;21031;-71
2022/07/04 10:41:05;;;;;;;4.10;2.22;;;;;;;31.25;38.04;99380.80;1704748;82;21494;-70
2022/07/04 10:46:31;;;;;;;6.78;2.60;;;;;;;31.13;37.54;99375.68;1710692;81;21093;-71
2022/07/04 10:49:05;;;;;;;;;;;;;;;31.14;37.96;99377.34;1707329;82;21433;-70
2022/07/04 10:51:49;;;;;;;3.72;3.40;;;;;;;31.27;37.88;99365.31;1718509;82;20183;-69
2022/07/04 10:54:30;;;;;;;3.77;2.60;;;;;;;31.42;38.00;99366.00;1739672;82;20971;-65
2022/07/04 10:57:18;;;;;;;3.40;2.72;;;;;;;31.63;37.49;99362.36;1728358;82;21375;-67
2022/07/04 11:00:01;;;;;;;6.00;2.60;;;;;;;31.82;36.68;99352.72;1724151;82;21569;-67
2022/07/04 11:02:33;;;;;;;3.35;2.47;;;;;;;31.90;36.25;99357.09;1711101;81;21019;-70
2022/07/04 11:05:09;;;;;;;6.42;2.65;;;;;;;31.96;35.86;99361.16;1695915;83;21451;-70
2022/07/04 11:07:41;;;;;;;3.75;2.55;;;;;;;32.05;35.49;99354.53;1722742;82;21023;-69
2022/07/04 11:13:02;;;;;;;4.72;2.37;;;;;;;32.34;34.53;99363.30;1740280;81;21026;-69
2022/07/04 11:15:40;;;;;;;5.35;3.02;;;;;;;32.35;34.29;99359.06;1692403;84;21017;-69
2022/07/04 11:18:12;;;;;;;8.45;2.83;;;;;;;32.38;34.35;99357.27;1695503;84;21140;-68
2022/07/04 11:20:49;;;;;;;5.45;3.65;;;;;;;32.50;34.34;99350.77;1685781;84;21044;-68
2022/07/04 11:23:19;;;;;;;4.58;3.17;;;;;;;32.59;33.46;99352.20;1694146;84;21710;-69
2022/07/04 11:25:47;;;;;;;5.33;2.95;;;;;;;32.47;33.63;99343.11;1716922;82;20970;-69
2022/07/04 11:28:25;;;;;;;3.58;2.70;;;;;;;32.44;33.92;99340.83;1691783;83;21017;-69
2022/07/04 11:30:54;;;;;;;5.60;2.90;;;;;;;32.50;34.16;99339.48;1709626;82;21051;-70
2022/07/04 11:33:23;;;;;;;3.27;2.70;;;;;;;32.50;34.11;99334.09;1724846;82;21683;-70
2022/07/04 11:36:05;;;;;;;4.20;2.85;;;;;;;32.52;34.60;99336.59;1749640;81;22134;-69
2022/07/04 11:39:00;;;;;;;4.92;3.00;;;;;;;32.66;34.85;99340.91;1751435;81;21053;-69
2022/07/04 11:47:20;;;;;;;4.87;3.72;;;;;;;32.85;33.95;99329.83;1683791;84;21014;-71
2022/07/04 11:49:53;;;;;;;3.47;3.17;;;;;;;32.76;33.85;99325.20;1707704;82;21274;-68
2022/07/04 11:52:26;;;;;;;3.80;3.20;;;;;;;32.53;34.37;99328.82;1709413;83;21058;-68
2022/07/04 11:54:53;;;;;;;3.17;2.80;;;;;;;32.49;34.19;99331.09;1696033;84;21034;-69
2022/07/04 11:57:27;;;;;;;9.90;3.25;;;;;;;32.62;33.60;99318.13;1696567;84;21050;-69
2022/07/04 12:00:08;;;;;;;4.10;2.80;;;;;;;32.68;33.72;99319.99;1696890;84;21013;-68
2022/07/04 12:02:37;;;;;;;5.20;2.90;;;;;;;32.79;34.08;99314.50;1745550;81;21049;-71
2022/07/04 12:05:06;;;;;;;5.42;2.60;;;;;;;32.84;33.67;99320.92;1756886;81;21087;-72
2022/07/04 12:07:35;;;;;;;3.25;2.42;;;;;;;32.90;33.46;99312.52;1689366;84;21601;-72
2022/07/04 12:10:16;;;;;;;7.12;2.98;;;;;;;32.90;33.29;99307.13;1689671;83;21049;-72
2022/07/04 12:13:02;;;;;;;3.67;2.77;;;;;;;32.99;33.33;99307.72;1697460;83;21053;-70
2022/07/04 12:15:43;;;;;;;3.87;2.60;;;;;;;33.05;33.36;99303.66;1706210;82;21248;-70
2022/07/04 12:18:22;;;;;;;3.22;2.92;;;;;;;33.03;33.17;99300.34;1725044;82;21070;-69
2022/07/04 12:20:51;;;;;;;6.95;3.08;;;;;;;32.97;33.27;99303.91;1735052;82;21048;-72
2022/07/04 12:23:22;;;;;;;10.00;3.40;;;;;;;32.93;33.88;99298.64;1737371;82;21040;-71
2022/07/04 12:25:51;;;;;;;6.83;3.02;;;;;;;33.02;33.99;99301.91;1720021;81;21100;-70
2022/07/04 12:28:18;;;;;;;6.65;2.62;;;;;;;33.11;33.53;99300.64;1693527;83;21312;-70
2022/07/04 12:30:51;;;;;;;4.87;2.83;;;;;;;33.13;33.52;99298.56;1720981;82;21065;-71
2022/07/04 12:33:23;;;;;;;4.78;2.90;;;;;;;33.18;33.48;99296.87;1669990;82;21146;-71
2022/07/04 12:39:08;;;;;;;6.22;3.02;;;;;;;33.39;32.68;99305.72;1731508;82;21054;-69
2022/07/04 12:41:35;;;;;;;5.53;3.05;;;;;;;33.43;32.37;99301.56;1703534;81;21788;-70
2022/07/04 12:44:02;;;;;;;4.10;2.85;;;;;;;33.41;32.60;99303.12;1735867;80;21068;-71
2022/07/04 12:46:32;;;;;;;4.53;3.05;;;;;;;33.33;32.53;99299.34;1754863;80;21010;-68
2022/07/04 12:49:01;;;;;;;10.95;3.05;;;;;;;33.29;32.49;99295.94;1754811;80;21040;-69
2022/07/04 12:51:34;;;;;;;8.65;3.22;;;;;;;33.25;32.69;99290.63;1740359;80;21608;-70
2022/07/04 12:54:09;;;;;;;3.42;3.12;;;;;;;33.21;32.96;99290.23;1708969;81;21280;-71
2022/07/04 12:56:38;;;;;;;4.85;2.70;;;;;;;33.16;32.70;99292.76;1766635;80;21022;-72
2022/07/04 12:59:07;;;;;;;3.47;3.15;;;;;;;33.12;32.87;99288.83;1742099;80;21175;-71
2022/07/04 13:01:35;;;;;;;4.65;3.37;;;;;;;33.07;32.96;99289.98;1757779;80;22194;-71
2022/07/04 13:04:03;;;;;;;4.25;3.00;;;;;;;32.99;33.45;99279.42;1745578;80;21478;-70
2022/07/04 13:06:30;;;;;;;4.03;2.60;;;;;;;32.94;33.47;99278.73;1738496;80;21121;-70
2022/07/04 13:08:57;;;;;;;8.23;2.55;;;;;;;32.90;33.16;99279.37;1735678;80;20991;-69
2022/07/04 13:14:10;;;;;;;5.72;2.90;;;;;;;32.89;32.74;99269.11;1757818;80;21489;-69
2022/07/04 13:16:36;;;;;;;3.85;2.80;;;;;;;32.92;32.49;99265.17;1763282;80;21054;-71
2022/07/04 13:19:04;;;;;;;3.12;2.83;;;;;;;32.91;32.54;99262.17;1735157;80;21750;-72
2022/07/04 13:21:31;;;;;;;3.40;2.70;;;;;;;32.88;32.38;99259.38;1737585;81;21166;-70
2022/07/04 13:23:58;;;;;;;4.45;3.52;;;;;;;32.82;32.48;99257.00;1736819;81;22145;-70
2022/07/04 13:26:25;;;;;;;3.20;2.90;;;;;;;32.80;32.62;99258.25;1738844;81;21088;-72
2022/07/04 13:28:52;;;;;;;4.20;2.80;;;;;;;32.78;32.76;99254.42;1704183;83;21104;-71
2022/07/04 13:31:19;;;;;;;6.62;3.20;;;;;;;32.72;32.86;99250.39;1746080;80;21220;-72
2022/07/04 13:33:46;;;;;;;11.22;3.55;;;;;;;32.69;32.70;99257.02;1749441;80;21104;-70
2022/07/04 13:36:14;;;;;;;6.33;3.42;;;;;;;32.63;33.24;99252.98;1743080;80;21132;-70
2022/07/04 13:38:41;;;;;;;6.47;3.02;;;;;;;32.58;33.67;99255.47;1773006;80;21017;-68
2022/07/04 13:41:08;;;;;;;3.85;3.45;;;;;;;32.58;33.55;99255.47;1774422;80;21038;-70
2022/07/04 13:43:35;;;;;;;7.75;3.20;;;;;;;32.61;33.33;99252.36;1748699;80;21988;-71
2022/07/04 13:46:02;;;;;;;6.50;2.92;;;;;;;32.63;33.19;99248.94;1736199;80;20997;-70
2022/07/04 13:48:29;;;;;;;8.28;3.25;;;;;;;32.62;33.02;99250.81;1737471;80;21014;-70
2022/07/04 13:50:56;;;;;;;4.60;3.15;;;;;;;32.51;32.66;99244.22;1766426;80;20943;-69
2022/07/04 13:53:23;;;;;;;8.25;3.10;;;;;;;32.40;33.17;99244.84;1772869;80;21009;-70
2022/07/04 13:55:49;;;;;;;6.62;3.20;;;;;;;32.38;33.46;99242.05;1756212;80;21125;-73
2022/07/04 13:58:16;;;;;;;7.28;3.02;;;;;;;32.39;33.33;99239.67;1757245;80;21450;-70
2022/07/04 14:00:44;;;;;;;4.30;2.98;;;;;;;32.39;33.45;99238.32;1746844;80;21183;-69
2022/07/04 14:03:12;;;;;;;5.28;3.17;;;;;;;32.37;33.47;99236.39;1765197;80;21078;-70
2022/07/04 14:05:42;;;;;;;16.93;3.65;;;;;;;32.39;33.25;99235.62;1762325;80;21031;-72
2022/07/04 14:08:09;;;;;;;4.05;3.47;;;;;;;32.34;33.19;99241.66;1749298;80;21549;-72
2022/07/04 14:10:36;;;;;;;4.03;2.77;;;;;;;32.30;32.98;99236.38;1748398;80;20955;-71
2022/07/04 14:13:03;;;;;;;4.85;3.27;;;;;;;32.26;32.81;99232.45;1769757;80;21010;-72
2022/07/04 14:15:30;;;;;;;6.62;3.15;;;;;;;32.26;32.92;99232.97;1728758;80;21005;-71
2022/07/04 14:17:56;;;;;;;9.10;3.47;;;;;;;32.26;33.12;99236.48;1743907;80;21011;-72
2022/07/04 14:20:23;;;;;;;4.53;3.15;;;;;;;32.27;33.31;99231.41;1736300;80;21093;-70
2022/07/04 14:22:50;;;;;;;4.47;2.80;;;;;;;32.24;32.48;99218.38;1729375;80;21387;-70
2022/07/04 14:25:17;;;;;;;6.37;2.80;;;;;;;32.16;32.42;99214.55;1754336;80;21151;-70
2022/07/04 14:27:43;;;;;;;4.15;2.87;;;;;;;32.09;32.13;99213.19;1761345;80;21106;-70
2022/07/04 14:30:11;;;;;;;9.03;3.00;;;;;;;32.01;32.18;99213.39;1773451;79;21577;-72
2022/07/04 14:32:37;;;;;;;3.72;2.60;;;;;;;31.95;32.64;99213.41;1762204;79;22043;-72
2022/07/04 14:35:05;;;;;;;6.05;2.45;;;;;;;31.97;31.99;99212.69;1764291;79;20996;-72
2022/07/04 14:37:32;;;;;;;5.78;2.70;;;;;;;31.91;31.19;99208.95;1753764;80;20963;-71
2022/07/04 14:39:59;;;;;;;5.50;2.90;;;;;;;31.77;31.37;99214.03;1734901;80;21483;-72
2022/07/04 14:42:26;;;;;;;6.10;3.02;;;;;;;31.66;31.60;99210.08;1753829;79;21031;-72
2022/07/04 14:44:52;;;;;;;6.45;3.33;;;;;;;31.58;31.56;99211.58;1748965;80;21676;-71
2022/07/04 14:47:19;;;;;;;3.47;3.05;;;;;;;31.58;31.64;99202.16;1738640;80;21036;-72
2022/07/04 14:49:45;;;;;;;5.87;2.95;;;;;;;31.61;31.69;99207.66;1765204;80;21007;-72
2022/07/04 14:52:12;;;;;;;9.03;2.80;;;;;;;31.63;32.02;99205.08;1738378;80;21009;-71
2022/07/04 14:54:39;;;;;;;6.47;2.83;;;;;;;31.67;32.04;99198.29;1769001;80;20939;-71
2022/07/04 14:57:08;;;;;;;3.70;2.98;;;;;;;31.73;32.09;99203.38;1746229;80;21103;-71
2022/07/04 14:59:36;;;;;;;6.45;2.70;;;;;;;31.76;32.04;99201.63;1760367;80;21549;-71
2022/07/04 15:02:04;;;;;;;4.35;2.87;;;;;;;31.79;31.83;99207.39;1764770;80;21080;-71
2022/07/04 15:04:33;;;;;;;6.53;3.00;;;;;;;31.77;31.85;99204.62;1752906;80;21003;-70
2022/07/04 15:06:59;;;;;;;8.03;4.40;;;;;;;31.76;32.11;99205.14;1751124;80;21040;-71
2022/07/04 15:09:26;;;;;;;5.58;3.42;;;;;;;31.77;32.44;99204.62;1742554;80;21169;-71
2022/07/04 15:11:53;;;;;;;7.00;3.20;;;;;;;31.75;32.19;99202.66;1762764;80;21021;-70
2022/07/04 15:14:19;;;;;;;6.35;3.27;;;;;;;31.66;32.27;99204.70;1772661;80;21431;-71
2022/07/04 15:16:46;;;;;;;4.05;2.92;;;;;;;31.59;32.75;99200.30;1751725;80;21049;-71
2022/07/04 15:19:14;;;;;;;5.62;3.30;;;;;;;31.58;32.85;99204.03;1737996;80;21072;-71
2022/07/04 15:24:25;;;;;;;6.30;3.15;;;;;;;31.53;33.07;99206.52;1765504;80;21050;-71
2022/07/04 15:26:52;;;;;;;6.30;3.47;;;;;;;31.51;33.23;99205.38;1765102;80;20986;-71
2022/07/04 15:29:20;;;;;;;4.67;3.42;;;;;;;31.46;33.70;99208.67;1756629;80;21558;-71
2022/07/04 15:31:47;;;;;;;3.47;3.10;;;;;;;31.44;33.98;99206.70;1745289;80;21089;-70
2022/07/04 15:34:15;;;;;;;5.25;3.27;;;;;;;31.43;34.17;99202.88;1752542;80;21142;-70
2022/07/04 15:36:42;;;;;;;8.95;3.85;;;;;;;31.41;34.09;99203.08;1771762;80;20955;-70
2022/07/04 15:39:15;;;;;;;9.68;3.83;;;;;;;31.41;34.11;99207.11;1759511;80;21010;-72
2022/07/04 15:41:44;;;;;;;4.83;3.60;;;;;;;31.38;34.27;99203.48;1762886;80;21016;-72
2022/07/04 15:44:10;;;;;;;4.85;4.03;;;;;;;31.31;34.29;99215.27;1751210;80;20965;-72
2022/07/04 15:47:07;;;;;;;4.37;3.55;;;;;;;31.20;34.36;99211.30;1735011;80;21706;-71
2022/07/04 15:49:05;;;;;;;5.00;3.37;;;;;;;31.10;34.65;99212.17;1760533;80;21097;-72
2022/07/04 15:51:32;;;;;;;5.15;3.50;;;;;;;31.01;35.02;99206.66;1775126;80;21562;-72
2022/07/04 15:53:59;;;;;;;5.33;3.65;;;;;;;30.91;35.50;99206.22;1734529;80;21021;-71
2022/07/04 15:56:25;;;;;;;5.37;3.92;;;;;;;30.84;35.79;99202.15;1742542;80;21073;-72
2022/07/04 15:58:52;;;;;;;6.72;3.70;;;;;;;30.78;36.00;99196.23;1774023;80;21714;-72
2022/07/04 16:01:19;;;;;;;5.03;3.72;;;;;;;30.78;36.00;99193.54;1772489;80;20941;-72
2022/07/04 16:03:45;;;;;;;4.15;3.75;;;;;;;30.76;36.00;99192.43;1732172;80;21004;-72
2022/07/04 16:06:14;;;;;;;5.05;3.50;;;;;;;30.78;36.10;99193.54;1739112;80;21015;-72
2022/07/04 16:08:40;;;;;;;4.47;3.47;;;;;;;30.77;36.17;99195.42;1750312;80;21415;-72
2022/07/04 16:11:07;;;;;;;5.28;3.33;;;;;;;30.75;36.14;99189.43;1741251;79;21224;-72
2022/07/04 16:13:35;;;;;;;7.03;4.72;;;;;;;30.71;36.09;99186.82;1746963;80;20983;-72
2022/07/04 16:16:04;;;;;;;8.58;4.03;;;;;;;30.66;36.24;99187.92;1751991;80;21508;-72
2022/07/04 16:18:30;;;;;;;4.47;3.67;;;;;;;30.62;36.39;99183.98;1758766;80;21058;-72
2022/07/04 16:20:57;;;;;;;5.47;3.80;;;;;;;30.58;36.44;99187.25;1750533;80;21078;-72
2022/07/04 16:23:23;;;;;;;8.45;3.92;;;;;;;30.50;36.85;99187.72;1751816;79;22043;-72
2022/07/04 16:25:52;;;;;;;7.75;3.45;;;;;;;30.45;37.11;99191.50;1744764;80;21020;-72
2022/07/04 16:28:19;;;;;;;5.90;4.03;;;;;;;30.38;37.30;99187.11;1751214;80;21000;-72
2022/07/04 16:30:46;;;;;;;7.28;3.65;;;;;;;30.30;37.63;99185.44;1726657;80;21500;-71
2022/07/04 16:33:13;;;;;;;7.50;4.53;;;;;;;30.21;37.98;99183.08;1757233;80;21010;-71
2022/07/04 16:35:39;;;;;;;6.08;3.62;;;;;;;30.14;37.86;99185.23;1734117;80;21743;-71
2022/07/04 16:38:06;;;;;;;5.20;3.50;;;;;;;30.07;37.98;99183.52;1763554;80;20937;-71
2022/07/04 16:40:33;;;;;;;5.50;4.00;;;;;;;29.99;37.95;99181.80;1774146;80;20986;-72
2022/07/04 16:42:59;;;;;;;13.08;4.62;;;;;;;29.94;38.21;99180.20;1772359;80;20990;-71
2022/07/04 16:45:26;;;;;;;5.45;3.87;;;;;;;29.89;38.47;99177.27;1764081;80;21414;-72
2022/07/04 16:47:52;;;;;;;5.78;4.12;;;;;;;29.85;38.74;99176.50;1744187;80;21238;-72
2022/07/04 16:50:19;;;;;;;7.75;4.62;;;;;;;29.78;39.09;99165.72;1746455;80;21139;-72
2022/07/04 16:52:47;;;;;;;8.38;4.55;;;;;;;29.71;39.43;99163.52;1744520;80;21046;-71
2022/07/04 16:55:13;;;;;;;14.47;5.87;;;;;;;29.65;39.68;99165.62;1746098;80;21567;-71
2022/07/04 16:57:40;;;;;;;11.63;4.42;;;;;;;29.57;40.16;99165.27;1747020;80;21042;-71
2022/07/04 17:00:08;;;;;;;6.20;3.80;;;;;;;29.50;40.58;99166.22;1750182;80;21135;-71
2022/07/04 17:02:35;;;;;;;7.70;4.45;;;;;;;29.41;40.83;99166.33;1746309;80;21522;-72
2022/07/04 17:05:02;;;;;;;7.20;3.92;;;;;;;29.35;41.27;99163.06;1751370;80;21082;-71
2022/07/04 17:07:29;;;;;;;9.78;4.08;;;;;;;29.29;41.71;99163.82;1759355;80;20944;-71
2022/07/04 17:09:55;;;;;;;12.90;4.20;;;;;;;29.22;41.83;99160.74;1750311;80;21064;-72
2022/07/04 17:12:24;;;;;;;6.00;4.00;;;;;;;29.16;42.05;99165.03;1769206;80;21514;-71
2022/07/04 17:14:51;;;;;;;8.93;6.90;;;;;;;29.10;42.16;99163.11;1729385;80;20958;-71
2022/07/04 17:17:19;;;;;;;12.70;5.35;;;;;;;29.04;42.30;99162.00;1734762;80;21071;-71
2022/07/04 17:19:46;;;;;;;8.90;4.65;;;;;;;28.98;42.71;99170.78;1754696;80;21010;-71
2022/07/04 17:22:13;;;;;;;5.28;4.37;;;;;;;28.90;42.96;99169.58;1730623;80;21516;-71
2022/07/04 17:24:40;;;;;;;7.60;4.45;;;;;;;28.82;43.22;99171.52;1765782;80;21273;-71
2022/07/04 17:27:06;;;;;;;5.50;3.98;;;;;;;28.73;43.47;99167.59;1737242;80;21000;-71
2022/07/04 17:29:34;;;;;;;10.78;4.85;;;;;;;28.64;43.62;99162.02;1768720;80;21026;-71